sensor_id;sensor_type;location;lat;lon;timestamp;temperature;humidity
67147;DHT22;54061;52.036;5.558;2023-04-24T00:02:08;15.60;98.50
67147;DHT22;54061;52.036;5.558;2023-04-24T00:04:37;15.60;98.50
67147;DHT22;54061;52.036;5.558;2023-04-24T00:07:06;15.60;98.50
67147;DHT22;54061;52.036;5.558;2023-04-24T00:09:32;15.60;98.40
67147;DHT22;54061;52.036;5.558;2023-04-24T00:11:58;15.60;98.40
67147;DHT22;54061;52.036;5.558;2023-04-24T00:14:24;15.60;98.30
67147;DHT22;54061;52.036;5.558;2023-04-24T00:16:49;15.60;98.20
67147;DHT22;54061;52.036;5.558;2023-04-24T00:19:15;15.60;98.20
67147;DHT22;54061;52.036;5.558;2023-04-24T00:21:41;15.60;98.20
67147;DHT22;54061;52.036;5.558;2023-04-24T00:24:07;15.60;98.10
67147;DHT22;54061;52.036;5.558;2023-04-24T00:26:34;15.60;98.10
67147;DHT22;54061;52.036;5.558;2023-04-24T00:29:00;15.60;98.00
67147;DHT22;54061;52.036;5.558;2023-04-24T00:31:25;15.50;98.00
67147;DHT22;54061;52.036;5.558;2023-04-24T00:33:51;15.50;98.00
67147;DHT22;54061;52.036;5.558;2023-04-24T00:36:16;15.50;97.80
67147;DHT22;54061;52.036;5.558;2023-04-24T00:38:44;15.60;97.90
67147;DHT22;54061;52.036;5.558;2023-04-24T00:41:10;15.50;97.80
67147;DHT22;54061;52.036;5.558;2023-04-24T00:43:35;15.50;97.80
67147;DHT22;54061;52.036;5.558;2023-04-24T00:46:01;15.50;97.80
67147;DHT22;54061;52.036;5.558;2023-04-24T00:48:27;15.50;97.70
67147;DHT22;54061;52.036;5.558;2023-04-24T00:50:53;15.50;97.70
67147;DHT22;54061;52.036;5.558;2023-04-24T00:53:19;15.50;97.60
67147;DHT22;54061;52.036;5.558;2023-04-24T00:55:44;15.50;97.60
67147;DHT22;54061;52.036;5.558;2023-04-24T00:58:10;15.50;97.60
67147;DHT22;54061;52.036;5.558;2023-04-24T01:00:36;15.50;97.50
67147;DHT22;54061;52.036;5.558;2023-04-24T01:03:04;15.50;97.50
67147;DHT22;54061;52.036;5.558;2023-04-24T01:05:30;15.50;97.40
67147;DHT22;54061;52.036;5.558;2023-04-24T01:07:56;15.50;97.40
67147;DHT22;54061;52.036;5.558;2023-04-24T01:10:22;15.50;97.40
67147;DHT22;54061;52.036;5.558;2023-04-24T01:12:50;15.50;97.30
67147;DHT22;54061;52.036;5.558;2023-04-24T01:15:15;15.50;97.30
67147;DHT22;54061;52.036;5.558;2023-04-24T01:17:41;15.50;97.30
67147;DHT22;54061;52.036;5.558;2023-04-24T01:20:07;15.50;97.20
67147;DHT22;54061;52.036;5.558;2023-04-24T01:22:35;15.50;97.20
67147;DHT22;54061;52.036;5.558;2023-04-24T01:25:02;15.50;97.00
67147;DHT22;54061;52.036;5.558;2023-04-24T01:27:27;15.40;97.00
67147;DHT22;54061;52.036;5.558;2023-04-24T01:29:53;15.50;97.10
67147;DHT22;54061;52.036;5.558;2023-04-24T01:32:19;15.50;97.00
67147;DHT22;54061;52.036;5.558;2023-04-24T01:34:45;15.40;96.90
67147;DHT22;54061;52.036;5.558;2023-04-24T01:37:12;15.50;97.00
67147;DHT22;54061;52.036;5.558;2023-04-24T01:39:37;15.40;96.90
67147;DHT22;54061;52.036;5.558;2023-04-24T01:42:04;15.40;96.90
67147;DHT22;54061;52.036;5.558;2023-04-24T01:44:30;15.40;96.70
67147;DHT22;54061;52.036;5.558;2023-04-24T01:46:56;15.40;96.80
67147;DHT22;54061;52.036;5.558;2023-04-24T01:49:22;15.40;96.70
67147;DHT22;54061;52.036;5.558;2023-04-24T01:51:47;15.40;96.70
67147;DHT22;54061;52.036;5.558;2023-04-24T01:54:13;15.40;96.70
67147;DHT22;54061;52.036;5.558;2023-04-24T01:56:42;15.40;96.60
67147;DHT22;54061;52.036;5.558;2023-04-24T01:59:10;15.40;96.50
67147;DHT22;54061;52.036;5.558;2023-04-24T02:01:37;15.40;96.50
67147;DHT22;54061;52.036;5.558;2023-04-24T02:04:04;15.40;96.50
67147;DHT22;54061;52.036;5.558;2023-04-24T02:06:30;15.40;96.50
67147;DHT22;54061;52.036;5.558;2023-04-24T02:08:59;15.40;96.50
67147;DHT22;54061;52.036;5.558;2023-04-24T02:11:25;15.40;96.40
67147;DHT22;54061;52.036;5.558;2023-04-24T02:13:52;15.40;96.40
67147;DHT22;54061;52.036;5.558;2023-04-24T02:16:17;15.30;96.30
67147;DHT22;54061;52.036;5.558;2023-04-24T02:18:43;15.40;96.30
67147;DHT22;54061;52.036;5.558;2023-04-24T02:21:09;15.40;96.20
67147;DHT22;54061;52.036;5.558;2023-04-24T02:23:34;15.40;96.30
67147;DHT22;54061;52.036;5.558;2023-04-24T02:26:00;15.40;96.20
67147;DHT22;54061;52.036;5.558;2023-04-24T02:28:25;15.30;96.20
67147;DHT22;54061;52.036;5.558;2023-04-24T02:30:51;15.30;96.10
67147;DHT22;54061;52.036;5.558;2023-04-24T02:33:16;15.40;96.20
67147;DHT22;54061;52.036;5.558;2023-04-24T02:35:42;15.30;96.10
67147;DHT22;54061;52.036;5.558;2023-04-24T02:38:08;15.40;96.10
67147;DHT22;54061;52.036;5.558;2023-04-24T02:40:33;15.40;96.00
67147;DHT22;54061;52.036;5.558;2023-04-24T02:42:59;15.30;96.00
67147;DHT22;54061;52.036;5.558;2023-04-24T02:45:24;15.30;95.90
67147;DHT22;54061;52.036;5.558;2023-04-24T02:47:50;15.30;95.90
67147;DHT22;54061;52.036;5.558;2023-04-24T02:50:15;15.30;95.90
67147;DHT22;54061;52.036;5.558;2023-04-24T02:52:41;15.30;95.90
67147;DHT22;54061;52.036;5.558;2023-04-24T02:55:07;15.30;95.90
67147;DHT22;54061;52.036;5.558;2023-04-24T02:57:33;15.30;95.80
67147;DHT22;54061;52.036;5.558;2023-04-24T02:59:59;15.30;95.80
67147;DHT22;54061;52.036;5.558;2023-04-24T03:02:25;15.30;95.80
67147;DHT22;54061;52.036;5.558;2023-04-24T03:04:50;15.30;96.00
67147;DHT22;54061;52.036;5.558;2023-04-24T03:07:16;15.30;95.70
67147;DHT22;54061;52.036;5.558;2023-04-24T03:09:41;15.30;95.60
67147;DHT22;54061;52.036;5.558;2023-04-24T03:12:07;15.30;95.60
67147;DHT22;54061;52.036;5.558;2023-04-24T03:14:33;15.30;95.60
67147;DHT22;54061;52.036;5.558;2023-04-24T03:16:58;15.30;95.60
67147;DHT22;54061;52.036;5.558;2023-04-24T03:19:24;15.30;95.60
67147;DHT22;54061;52.036;5.558;2023-04-24T03:21:50;15.30;95.50
67147;DHT22;54061;52.036;5.558;2023-04-24T03:24:15;15.30;95.50
67147;DHT22;54061;52.036;5.558;2023-04-24T03:26:41;15.30;95.40
67147;DHT22;54061;52.036;5.558;2023-04-24T03:29:06;15.30;95.70
67147;DHT22;54061;52.036;5.558;2023-04-24T03:31:32;15.30;95.40
67147;DHT22;54061;52.036;5.558;2023-04-24T03:33:57;15.30;95.40
67147;DHT22;54061;52.036;5.558;2023-04-24T03:36:23;15.20;95.30
67147;DHT22;54061;52.036;5.558;2023-04-24T03:38:48;15.30;95.30
67147;DHT22;54061;52.036;5.558;2023-04-24T03:41:14;15.30;95.30
67147;DHT22;54061;52.036;5.558;2023-04-24T03:43:40;15.20;95.30
67147;DHT22;54061;52.036;5.558;2023-04-24T03:46:05;15.20;95.20
67147;DHT22;54061;52.036;5.558;2023-04-24T03:48:31;15.20;95.20
67147;DHT22;54061;52.036;5.558;2023-04-24T03:50:56;15.20;95.20
67147;DHT22;54061;52.036;5.558;2023-04-24T03:53:22;15.20;95.20
67147;DHT22;54061;52.036;5.558;2023-04-24T03:55:47;15.20;95.10
67147;DHT22;54061;52.036;5.558;2023-04-24T03:58:13;15.20;95.10
67147;DHT22;54061;52.036;5.558;2023-04-24T04:00:43;15.20;95.10
67147;DHT22;54061;52.036;5.558;2023-04-24T04:03:09;15.20;95.00
67147;DHT22;54061;52.036;5.558;2023-04-24T04:05:35;15.20;95.00
67147;DHT22;54061;52.036;5.558;2023-04-24T04:08:00;15.20;95.00
67147;DHT22;54061;52.036;5.558;2023-04-24T04:10:26;15.20;95.00
67147;DHT22;54061;52.036;5.558;2023-04-24T04:12:51;15.20;95.00
67147;DHT22;54061;52.036;5.558;2023-04-24T04:15:17;15.20;94.90
67147;DHT22;54061;52.036;5.558;2023-04-24T04:17:42;15.20;94.90
67147;DHT22;54061;52.036;5.558;2023-04-24T04:20:08;15.20;94.90
67147;DHT22;54061;52.036;5.558;2023-04-24T04:22:37;15.20;94.80
67147;DHT22;54061;52.036;5.558;2023-04-24T04:25:03;15.20;94.80
67147;DHT22;54061;52.036;5.558;2023-04-24T04:27:30;15.20;94.80
67147;DHT22;54061;52.036;5.558;2023-04-24T04:29:58;15.20;94.80
67147;DHT22;54061;52.036;5.558;2023-04-24T04:32:26;15.20;94.70
67147;DHT22;54061;52.036;5.558;2023-04-24T04:34:52;15.20;94.70
67147;DHT22;54061;52.036;5.558;2023-04-24T04:37:18;15.20;94.70
67147;DHT22;54061;52.036;5.558;2023-04-24T04:39:44;15.20;94.70
67147;DHT22;54061;52.036;5.558;2023-04-24T04:42:09;15.20;94.70
67147;DHT22;54061;52.036;5.558;2023-04-24T04:44:35;15.20;94.70
67147;DHT22;54061;52.036;5.558;2023-04-24T04:47:01;15.20;94.60
67147;DHT22;54061;52.036;5.558;2023-04-24T04:49:31;15.20;94.60
67147;DHT22;54061;52.036;5.558;2023-04-24T04:51:56;15.10;94.50
67147;DHT22;54061;52.036;5.558;2023-04-24T04:54:22;15.10;94.50
67147;DHT22;54061;52.036;5.558;2023-04-24T04:56:50;15.20;94.50
67147;DHT22;54061;52.036;5.558;2023-04-24T04:59:15;15.20;94.40
67147;DHT22;54061;52.036;5.558;2023-04-24T05:01:41;15.10;94.40
67147;DHT22;54061;52.036;5.558;2023-04-24T05:04:07;15.20;94.50
67147;DHT22;54061;52.036;5.558;2023-04-24T05:06:32;15.10;94.40
67147;DHT22;54061;52.036;5.558;2023-04-24T05:08:58;15.10;94.40
67147;DHT22;54061;52.036;5.558;2023-04-24T05:11:23;15.20;94.40
67147;DHT22;54061;52.036;5.558;2023-04-24T05:13:49;15.10;94.30
67147;DHT22;54061;52.036;5.558;2023-04-24T05:16:14;15.10;94.30
67147;DHT22;54061;52.036;5.558;2023-04-24T05:18:40;15.10;94.30
67147;DHT22;54061;52.036;5.558;2023-04-24T05:21:06;15.10;94.30
67147;DHT22;54061;52.036;5.558;2023-04-24T05:23:31;15.10;94.20
67147;DHT22;54061;52.036;5.558;2023-04-24T05:25:57;15.10;94.20
67147;DHT22;54061;52.036;5.558;2023-04-24T05:28:22;15.10;94.20
67147;DHT22;54061;52.036;5.558;2023-04-24T05:30:48;15.10;94.20
67147;DHT22;54061;52.036;5.558;2023-04-24T05:33:14;15.10;94.20
67147;DHT22;54061;52.036;5.558;2023-04-24T05:35:40;15.10;94.10
67147;DHT22;54061;52.036;5.558;2023-04-24T05:38:11;15.10;94.10
67147;DHT22;54061;52.036;5.558;2023-04-24T05:40:37;15.10;94.10
67147;DHT22;54061;52.036;5.558;2023-04-24T05:43:02;15.10;94.10
67147;DHT22;54061;52.036;5.558;2023-04-24T05:45:28;15.10;94.00
67147;DHT22;54061;52.036;5.558;2023-04-24T05:47:53;15.10;94.00
67147;DHT22;54061;52.036;5.558;2023-04-24T05:50:19;15.10;94.00
67147;DHT22;54061;52.036;5.558;2023-04-24T05:52:44;15.10;94.00
67147;DHT22;54061;52.036;5.558;2023-04-24T05:55:10;15.10;94.00
67147;DHT22;54061;52.036;5.558;2023-04-24T05:57:35;15.10;93.90
67147;DHT22;54061;52.036;5.558;2023-04-24T06:00:01;15.10;93.90
67147;DHT22;54061;52.036;5.558;2023-04-24T06:02:26;15.10;93.90
67147;DHT22;54061;52.036;5.558;2023-04-24T06:04:52;15.10;93.90
67147;DHT22;54061;52.036;5.558;2023-04-24T06:07:18;15.10;93.90
67147;DHT22;54061;52.036;5.558;2023-04-24T06:09:44;15.10;93.80
67147;DHT22;54061;52.036;5.558;2023-04-24T06:12:09;15.10;93.80
67147;DHT22;54061;52.036;5.558;2023-04-24T06:14:35;15.10;93.80
67147;DHT22;54061;52.036;5.558;2023-04-24T06:17:00;15.10;93.80
67147;DHT22;54061;52.036;5.558;2023-04-24T06:19:26;15.10;93.80
67147;DHT22;54061;52.036;5.558;2023-04-24T06:21:51;15.10;93.80
67147;DHT22;54061;52.036;5.558;2023-04-24T06:24:17;15.10;93.80
67147;DHT22;54061;52.036;5.558;2023-04-24T06:26:42;15.10;93.70
67147;DHT22;54061;52.036;5.558;2023-04-24T06:29:08;15.10;93.70
67147;DHT22;54061;52.036;5.558;2023-04-24T06:31:33;15.10;93.70
67147;DHT22;54061;52.036;5.558;2023-04-24T06:34:02;15.10;93.70
67147;DHT22;54061;52.036;5.558;2023-04-24T06:36:28;15.10;93.70
67147;DHT22;54061;52.036;5.558;2023-04-24T06:38:54;15.10;93.70
67147;DHT22;54061;52.036;5.558;2023-04-24T06:41:19;15.10;93.60
67147;DHT22;54061;52.036;5.558;2023-04-24T06:43:45;15.10;93.60
67147;DHT22;54061;52.036;5.558;2023-04-24T06:46:11;15.10;93.60
67147;DHT22;54061;52.036;5.558;2023-04-24T06:48:37;15.00;93.60
67147;DHT22;54061;52.036;5.558;2023-04-24T06:51:02;15.10;93.60
67147;DHT22;54061;52.036;5.558;2023-04-24T06:53:28;15.10;93.60
67147;DHT22;54061;52.036;5.558;2023-04-24T06:55:54;15.00;93.50
67147;DHT22;54061;52.036;5.558;2023-04-24T06:58:20;15.10;93.50
67147;DHT22;54061;52.036;5.558;2023-04-24T07:00:45;15.00;93.50
67147;DHT22;54061;52.036;5.558;2023-04-24T07:03:11;15.00;93.50
67147;DHT22;54061;52.036;5.558;2023-04-24T07:05:36;15.00;93.50
67147;DHT22;54061;52.036;5.558;2023-04-24T07:08:03;15.00;93.40
67147;DHT22;54061;52.036;5.558;2023-04-24T07:10:29;15.00;93.40
67147;DHT22;54061;52.036;5.558;2023-04-24T07:12:55;15.00;93.40
67147;DHT22;54061;52.036;5.558;2023-04-24T07:15:22;15.10;93.40
67147;DHT22;54061;52.036;5.558;2023-04-24T07:17:48;15.00;93.40
67147;DHT22;54061;52.036;5.558;2023-04-24T07:20:14;15.00;93.40
67147;DHT22;54061;52.036;5.558;2023-04-24T07:22:40;15.00;93.40
67147;DHT22;54061;52.036;5.558;2023-04-24T07:25:06;15.00;93.40
67147;DHT22;54061;52.036;5.558;2023-04-24T07:27:33;15.00;93.30
67147;DHT22;54061;52.036;5.558;2023-04-24T07:29:58;15.00;93.30
67147;DHT22;54061;52.036;5.558;2023-04-24T07:32:24;15.00;93.30
67147;DHT22;54061;52.036;5.558;2023-04-24T07:34:49;15.00;93.30
67147;DHT22;54061;52.036;5.558;2023-04-24T07:37:15;15.00;93.30
67147;DHT22;54061;52.036;5.558;2023-04-24T07:39:41;15.00;93.20
67147;DHT22;54061;52.036;5.558;2023-04-24T07:42:06;15.00;93.20
67147;DHT22;54061;52.036;5.558;2023-04-24T07:44:32;15.00;93.20
67147;DHT22;54061;52.036;5.558;2023-04-24T07:46:57;15.00;93.20
67147;DHT22;54061;52.036;5.558;2023-04-24T07:49:23;15.00;93.20
67147;DHT22;54061;52.036;5.558;2023-04-24T07:51:49;15.00;93.20
67147;DHT22;54061;52.036;5.558;2023-04-24T07:54:15;15.00;93.20
67147;DHT22;54061;52.036;5.558;2023-04-24T07:56:41;15.00;93.10
67147;DHT22;54061;52.036;5.558;2023-04-24T07:59:08;15.00;93.10
67147;DHT22;54061;52.036;5.558;2023-04-24T08:01:35;15.00;93.10
67147;DHT22;54061;52.036;5.558;2023-04-24T08:04:01;15.00;93.10
67147;DHT22;54061;52.036;5.558;2023-04-24T08:06:27;15.00;93.10
67147;DHT22;54061;52.036;5.558;2023-04-24T08:08:57;15.00;93.30
67147;DHT22;54061;52.036;5.558;2023-04-24T08:11:24;15.00;93.00
67147;DHT22;54061;52.036;5.558;2023-04-24T08:13:49;15.00;93.00
67147;DHT22;54061;52.036;5.558;2023-04-24T08:16:15;14.90;93.00
67147;DHT22;54061;52.036;5.558;2023-04-24T08:18:41;15.00;93.00
67147;DHT22;54061;52.036;5.558;2023-04-24T08:21:06;15.00;93.00
67147;DHT22;54061;52.036;5.558;2023-04-24T08:23:32;14.90;92.90
67147;DHT22;54061;52.036;5.558;2023-04-24T08:25:57;14.90;92.90
67147;DHT22;54061;52.036;5.558;2023-04-24T08:28:23;15.00;92.90
67147;DHT22;54061;52.036;5.558;2023-04-24T08:30:49;15.00;92.90
67147;DHT22;54061;52.036;5.558;2023-04-24T08:33:22;15.00;92.90
67147;DHT22;54061;52.036;5.558;2023-04-24T08:35:48;14.90;92.90
67147;DHT22;54061;52.036;5.558;2023-04-24T08:38:14;14.90;92.80
67147;DHT22;54061;52.036;5.558;2023-04-24T08:40:40;14.90;92.80
67147;DHT22;54061;52.036;5.558;2023-04-24T08:43:06;14.90;92.80
67147;DHT22;54061;52.036;5.558;2023-04-24T08:45:32;14.90;92.80
67147;DHT22;54061;52.036;5.558;2023-04-24T08:47:58;14.90;92.70
67147;DHT22;54061;52.036;5.558;2023-04-24T08:50:25;14.90;92.70
67147;DHT22;54061;52.036;5.558;2023-04-24T08:52:52;15.00;92.70
67147;DHT22;54061;52.036;5.558;2023-04-24T08:55:22;14.90;92.70
67147;DHT22;54061;52.036;5.558;2023-04-24T08:57:51;14.90;92.70
67147;DHT22;54061;52.036;5.558;2023-04-24T09:00:21;14.90;92.60
67147;DHT22;54061;52.036;5.558;2023-04-24T09:02:49;14.90;92.70
67147;DHT22;54061;52.036;5.558;2023-04-24T09:05:16;14.90;92.60
67147;DHT22;54061;52.036;5.558;2023-04-24T09:07:45;14.90;92.60
67147;DHT22;54061;52.036;5.558;2023-04-24T09:10:11;14.90;92.60
67147;DHT22;54061;52.036;5.558;2023-04-24T09:12:37;14.90;92.60
67147;DHT22;54061;52.036;5.558;2023-04-24T09:15:03;14.90;92.60
67147;DHT22;54061;52.036;5.558;2023-04-24T09:17:30;14.90;92.60
67147;DHT22;54061;52.036;5.558;2023-04-24T09:19:56;14.90;92.50
67147;DHT22;54061;52.036;5.558;2023-04-24T09:22:21;14.90;92.50
67147;DHT22;54061;52.036;5.558;2023-04-24T09:24:47;14.90;92.50
67147;DHT22;54061;52.036;5.558;2023-04-24T09:27:13;14.90;92.50
67147;DHT22;54061;52.036;5.558;2023-04-24T09:29:56;14.90;92.50
67147;DHT22;54061;52.036;5.558;2023-04-24T09:32:23;14.90;92.10
67147;DHT22;54061;52.036;5.558;2023-04-24T09:37:45;14.90;92.10
67147;DHT22;54061;52.036;5.558;2023-04-24T09:40:17;14.90;92.30
67147;DHT22;54061;52.036;5.558;2023-04-24T09:42:45;14.90;92.40
67147;DHT22;54061;52.036;5.558;2023-04-24T09:45:11;14.90;92.40
67147;DHT22;54061;52.036;5.558;2023-04-24T09:47:38;14.90;92.30
67147;DHT22;54061;52.036;5.558;2023-04-24T09:50:12;14.90;92.30
67147;DHT22;54061;52.036;5.558;2023-04-24T09:52:46;14.90;92.10
67147;DHT22;54061;52.036;5.558;2023-04-24T09:55:15;14.90;92.10
67147;DHT22;54061;52.036;5.558;2023-04-24T09:57:51;14.90;92.20
67147;DHT22;54061;52.036;5.558;2023-04-24T10:00:18;14.90;92.10
67147;DHT22;54061;52.036;5.558;2023-04-24T10:02:44;14.90;92.50
67147;DHT22;54061;52.036;5.558;2023-04-24T10:05:11;14.90;92.20
67147;DHT22;54061;52.036;5.558;2023-04-24T10:07:37;14.90;92.20
67147;DHT22;54061;52.036;5.558;2023-04-24T10:10:03;14.90;92.20
67147;DHT22;54061;52.036;5.558;2023-04-24T10:12:29;14.90;92.20
67147;DHT22;54061;52.036;5.558;2023-04-24T10:14:56;14.90;92.20
67147;DHT22;54061;52.036;5.558;2023-04-24T10:17:22;14.90;92.10
67147;DHT22;54061;52.036;5.558;2023-04-24T10:19:50;14.90;92.10
67147;DHT22;54061;52.036;5.558;2023-04-24T10:22:17;15.00;92.10
67147;DHT22;54061;52.036;5.558;2023-04-24T10:24:43;15.00;92.10
67147;DHT22;54061;52.036;5.558;2023-04-24T10:27:09;15.00;92.10
67147;DHT22;54061;52.036;5.558;2023-04-24T10:29:35;15.00;92.10
67147;DHT22;54061;52.036;5.558;2023-04-24T10:32:01;15.00;92.10
67147;DHT22;54061;52.036;5.558;2023-04-24T10:34:27;15.00;92.10
67147;DHT22;54061;52.036;5.558;2023-04-24T10:36:54;15.00;92.00
67147;DHT22;54061;52.036;5.558;2023-04-24T10:39:21;15.00;92.00
67147;DHT22;54061;52.036;5.558;2023-04-24T10:41:48;15.00;92.00
67147;DHT22;54061;52.036;5.558;2023-04-24T10:44:15;15.00;92.00
67147;DHT22;54061;52.036;5.558;2023-04-24T10:46:53;15.00;92.00
67147;DHT22;54061;52.036;5.558;2023-04-24T10:49:30;15.00;91.70
67147;DHT22;54061;52.036;5.558;2023-04-24T10:52:00;15.00;91.80
67147;DHT22;54061;52.036;5.558;2023-04-24T10:59:48;15.00;91.50
67147;DHT22;54061;52.036;5.558;2023-04-24T11:02:15;15.00;91.90
67147;DHT22;54061;52.036;5.558;2023-04-24T11:04:41;15.00;91.90
67147;DHT22;54061;52.036;5.558;2023-04-24T11:07:09;15.00;91.90
67147;DHT22;54061;52.036;5.558;2023-04-24T11:09:34;15.00;91.80
67147;DHT22;54061;52.036;5.558;2023-04-24T11:12:08;15.00;91.80
67147;DHT22;54061;52.036;5.558;2023-04-24T11:17:35;15.00;91.30
67147;DHT22;54061;52.036;5.558;2023-04-24T11:20:07;15.10;91.50
67147;DHT22;54061;52.036;5.558;2023-04-24T11:22:35;15.00;91.70
67147;DHT22;54061;52.036;5.558;2023-04-24T11:25:02;15.00;91.80
67147;DHT22;54061;52.036;5.558;2023-04-24T11:27:30;15.00;91.70
67147;DHT22;54061;52.036;5.558;2023-04-24T11:35:00;15.00;91.50
67147;DHT22;54061;52.036;5.558;2023-04-24T11:39:58;15.00;91.50
67147;DHT22;54061;52.036;5.558;2023-04-24T11:42:24;15.10;91.70
67147;DHT22;54061;52.036;5.558;2023-04-24T11:44:52;15.00;91.60
67147;DHT22;54061;52.036;5.558;2023-04-24T11:47:18;15.10;91.60
67147;DHT22;54061;52.036;5.558;2023-04-24T11:49:44;15.10;91.60
67147;DHT22;54061;52.036;5.558;2023-04-24T11:52:09;15.00;91.60
67147;DHT22;54061;52.036;5.558;2023-04-24T11:54:36;15.00;91.60
67147;DHT22;54061;52.036;5.558;2023-04-24T11:57:04;15.10;91.60
67147;DHT22;54061;52.036;5.558;2023-04-24T11:59:35;15.00;91.50
67147;DHT22;54061;52.036;5.558;2023-04-24T12:02:02;15.00;91.40
67147;DHT22;54061;52.036;5.558;2023-04-24T12:04:41;15.00;91.40
67147;DHT22;54061;52.036;5.558;2023-04-24T12:07:07;15.00;91.20
67147;DHT22;54061;52.036;5.558;2023-04-24T12:10:00;15.00;91.40
67147;DHT22;54061;52.036;5.558;2023-04-24T12:12:27;15.00;90.70
67147;DHT22;54061;52.036;5.558;2023-04-24T12:14:55;15.00;91.40
67147;DHT22;54061;52.036;5.558;2023-04-24T12:17:32;15.00;91.30
67147;DHT22;54061;52.036;5.558;2023-04-24T12:20:08;15.00;91.00
67147;DHT22;54061;52.036;5.558;2023-04-24T12:22:53;15.10;91.00
67147;DHT22;54061;52.036;5.558;2023-04-24T12:25:21;15.10;91.00
67147;DHT22;54061;52.036;5.558;2023-04-24T12:27:57;15.10;91.30
67147;DHT22;54061;52.036;5.558;2023-04-24T12:30:41;15.10;91.20
67147;DHT22;54061;52.036;5.558;2023-04-24T12:33:09;15.10;91.10
67147;DHT22;54061;52.036;5.558;2023-04-24T12:35:35;15.10;91.20
67147;DHT22;54061;52.036;5.558;2023-04-24T12:38:09;15.10;91.20
67147;DHT22;54061;52.036;5.558;2023-04-24T12:40:35;15.10;91.00
67147;DHT22;54061;52.036;5.558;2023-04-24T12:43:01;15.10;91.10
67147;DHT22;54061;52.036;5.558;2023-04-24T12:45:26;15.10;91.10
67147;DHT22;54061;52.036;5.558;2023-04-24T12:47:53;15.10;91.10
67147;DHT22;54061;52.036;5.558;2023-04-24T12:50:18;15.10;91.10
67147;DHT22;54061;52.036;5.558;2023-04-24T12:52:44;15.10;91.10
67147;DHT22;54061;52.036;5.558;2023-04-24T12:55:10;15.10;91.10
67147;DHT22;54061;52.036;5.558;2023-04-24T12:57:38;15.10;91.00
67147;DHT22;54061;52.036;5.558;2023-04-24T13:00:05;15.10;91.00
67147;DHT22;54061;52.036;5.558;2023-04-24T13:02:31;15.10;91.00
67147;DHT22;54061;52.036;5.558;2023-04-24T13:04:57;15.10;91.00
67147;DHT22;54061;52.036;5.558;2023-04-24T13:07:24;15.10;91.00
67147;DHT22;54061;52.036;5.558;2023-04-24T13:09:51;15.20;91.00
67147;DHT22;54061;52.036;5.558;2023-04-24T13:12:17;15.20;91.00
67147;DHT22;54061;52.036;5.558;2023-04-24T13:14:43;15.10;90.90
67147;DHT22;54061;52.036;5.558;2023-04-24T13:17:08;15.20;91.00
67147;DHT22;54061;52.036;5.558;2023-04-24T13:19:39;15.10;90.90
67147;DHT22;54061;52.036;5.558;2023-04-24T13:22:05;15.10;90.80
67147;DHT22;54061;52.036;5.558;2023-04-24T13:24:31;15.10;90.90
67147;DHT22;54061;52.036;5.558;2023-04-24T13:26:57;15.10;90.90
67147;DHT22;54061;52.036;5.558;2023-04-24T13:29:23;15.20;90.90
67147;DHT22;54061;52.036;5.558;2023-04-24T13:31:52;15.10;90.80
67147;DHT22;54061;52.036;5.558;2023-04-24T13:34:20;15.10;90.80
67147;DHT22;54061;52.036;5.558;2023-04-24T13:36:45;15.10;90.80
67147;DHT22;54061;52.036;5.558;2023-04-24T13:39:11;15.20;90.80
67147;DHT22;54061;52.036;5.558;2023-04-24T13:41:37;15.10;90.80
67147;DHT22;54061;52.036;5.558;2023-04-24T13:44:03;15.20;90.80
67147;DHT22;54061;52.036;5.558;2023-04-24T13:46:30;15.20;90.80
67147;DHT22;54061;52.036;5.558;2023-04-24T13:48:56;15.20;90.80
67147;DHT22;54061;52.036;5.558;2023-04-24T13:51:22;15.20;90.80
67147;DHT22;54061;52.036;5.558;2023-04-24T13:53:48;15.20;90.70
67147;DHT22;54061;52.036;5.558;2023-04-24T13:56:13;15.20;90.70
67147;DHT22;54061;52.036;5.558;2023-04-24T13:58:39;15.20;90.70
67147;DHT22;54061;52.036;5.558;2023-04-24T14:01:05;15.20;90.70
67147;DHT22;54061;52.036;5.558;2023-04-24T14:03:30;15.20;90.70
67147;DHT22;54061;52.036;5.558;2023-04-24T14:05:56;15.20;90.70
67147;DHT22;54061;52.036;5.558;2023-04-24T14:08:22;15.30;90.70
67147;DHT22;54061;52.036;5.558;2023-04-24T14:10:48;15.30;90.70
67147;DHT22;54061;52.036;5.558;2023-04-24T14:13:14;15.20;90.60
67147;DHT22;54061;52.036;5.558;2023-04-24T14:15:39;15.30;90.70
67147;DHT22;54061;52.036;5.558;2023-04-24T14:18:05;15.30;90.60
67147;DHT22;54061;52.036;5.558;2023-04-24T14:20:31;15.30;90.60
67147;DHT22;54061;52.036;5.558;2023-04-24T14:22:57;15.30;90.60
67147;DHT22;54061;52.036;5.558;2023-04-24T14:25:26;15.30;90.60
67147;DHT22;54061;52.036;5.558;2023-04-24T14:27:51;15.30;90.60
67147;DHT22;54061;52.036;5.558;2023-04-24T14:30:18;15.30;90.60
67147;DHT22;54061;52.036;5.558;2023-04-24T14:32:43;15.30;90.60
67147;DHT22;54061;52.036;5.558;2023-04-24T14:35:09;15.30;90.60
67147;DHT22;54061;52.036;5.558;2023-04-24T14:37:35;15.30;90.60
67147;DHT22;54061;52.036;5.558;2023-04-24T14:40:01;15.30;90.50
67147;DHT22;54061;52.036;5.558;2023-04-24T14:42:27;15.30;90.50
67147;DHT22;54061;52.036;5.558;2023-04-24T14:44:54;15.30;90.50
67147;DHT22;54061;52.036;5.558;2023-04-24T14:47:20;15.30;90.50
67147;DHT22;54061;52.036;5.558;2023-04-24T14:49:47;15.30;90.40
67147;DHT22;54061;52.036;5.558;2023-04-24T14:52:13;15.30;90.40
67147;DHT22;54061;52.036;5.558;2023-04-24T14:54:38;15.30;90.40
67147;DHT22;54061;52.036;5.558;2023-04-24T14:57:04;15.30;90.40
67147;DHT22;54061;52.036;5.558;2023-04-24T14:59:30;15.30;90.40
67147;DHT22;54061;52.036;5.558;2023-04-24T15:01:56;15.30;90.40
67147;DHT22;54061;52.036;5.558;2023-04-24T15:04:26;15.30;90.30
67147;DHT22;54061;52.036;5.558;2023-04-24T15:06:52;15.30;90.30
67147;DHT22;54061;52.036;5.558;2023-04-24T15:09:21;15.30;90.30
67147;DHT22;54061;52.036;5.558;2023-04-24T15:11:48;15.30;90.30
67147;DHT22;54061;52.036;5.558;2023-04-24T15:14:14;15.30;90.30
67147;DHT22;54061;52.036;5.558;2023-04-24T15:16:40;15.30;90.30
67147;DHT22;54061;52.036;5.558;2023-04-24T15:19:06;15.30;90.20
67147;DHT22;54061;52.036;5.558;2023-04-24T15:21:32;15.30;90.20
67147;DHT22;54061;52.036;5.558;2023-04-24T15:23:58;15.30;90.20
67147;DHT22;54061;52.036;5.558;2023-04-24T15:26:24;15.30;90.20
67147;DHT22;54061;52.036;5.558;2023-04-24T15:28:49;15.30;90.10
67147;DHT22;54061;52.036;5.558;2023-04-24T15:31:17;15.30;90.10
67147;DHT22;54061;52.036;5.558;2023-04-24T15:33:42;15.30;90.10
67147;DHT22;54061;52.036;5.558;2023-04-24T15:36:08;15.30;90.10
67147;DHT22;54061;52.036;5.558;2023-04-24T15:38:33;15.30;90.00
67147;DHT22;54061;52.036;5.558;2023-04-24T15:40:59;15.30;90.00
67147;DHT22;54061;52.036;5.558;2023-04-24T15:43:24;15.30;90.10
67147;DHT22;54061;52.036;5.558;2023-04-24T15:45:50;15.30;90.00